Pagina principale
METAR-TAF:

METAR-TAF

Aeroporti :

Victoria Falls, Zimbabwe

latitudine: 18-06S, longitudine: 025-51E, altezza: 1061 m

Osservazione

Il bollettino è stato emesso 5 ore e 27 minuti fa, alle 13:00 UTC
Vento 5 kt da sud, variando fra est e sud-ovest
Temperature 25°C
Umidità 30%
Pressione 1020 hPa
Visibilità 10 km o più
nessuna nube inferiore a 1500 m e nessun cumulonembo

METAR: FVFA 241300Z 17005KT 090V230 CAVOK 25/06 Q1020 NOSIG

Ora: 20:27 (18:27 UTC)

Previsione

Il bollettino è stato emesso 2 ore e 27 minuti fa, alle 16:00 UTC
Previsione valida dal 24 alle 18 UTC al 25 alle 24 UTC
Vento 4 kt da direzioni variabili
Visibilità 10 km o più
nessuna nube inferiore a 1500 m e nessun cumulonembo
Evoluzione graduale
dal 25 alle 06 UTC al 25 alle 08 UTC
Vento 7 kt da est

TAF: FVFA 241600Z 2418/2524 VRB04KT CAVOK BECMG 2506/2508 09007KT

Osservazioni e previsioni meteorologiche di più di 4000 aeroporti (messaggi METAR e TAF).

Le stazioni disponibili sono rappresentate dai dischi gialli e rossi sulla carta.

Puntare il mouse per vedere il nome della stazione.

Clicca sopra per visualizzare le osservazioni e previsioni meteorologiche.

Per cambiare la mappa : fare clic sui pulsanti verdi con una croce nera per ingrandire, il pulsante verde con un trattino per diminuire, o sulla freccia verde per le mappe adiacenti.


METAR-TAF: